sensor_id;sensor_type;location;lat;lon;timestamp;P1;durP1;ratioP1;P2;durP2;ratioP2
11711;SDS011;5912;51.034;6.984;2023-12-04T00:01:45;10.20;;;7.23;;
11711;SDS011;5912;51.034;6.984;2023-12-04T00:04:11;10.83;;;7.63;;
11711;SDS011;5912;51.034;6.984;2023-12-04T00:06:37;11.00;;;7.47;;
11711;SDS011;5912;51.034;6.984;2023-12-04T00:09:02;11.50;;;8.20;;
11711;SDS011;5912;51.034;6.984;2023-12-04T00:11:28;10.33;;;6.97;;
11711;SDS011;5912;51.034;6.984;2023-12-04T00:13:53;10.83;;;7.80;;
11711;SDS011;5912;51.034;6.984;2023-12-04T00:16:18;11.17;;;7.67;;
11711;SDS011;5912;51.034;6.984;2023-12-04T00:18:44;10.93;;;7.47;;
11711;SDS011;5912;51.034;6.984;2023-12-04T00:21:09;9.60;;;7.33;;
11711;SDS011;5912;51.034;6.984;2023-12-04T00:23:34;10.37;;;7.67;;
11711;SDS011;5912;51.034;6.984;2023-12-04T00:26:00;10.30;;;7.47;;
11711;SDS011;5912;51.034;6.984;2023-12-04T00:28:25;8.03;;;6.53;;
11711;SDS011;5912;51.034;6.984;2023-12-04T00:30:50;9.47;;;7.10;;
11711;SDS011;5912;51.034;6.984;2023-12-04T00:33:16;10.87;;;7.10;;
11711;SDS011;5912;51.034;6.984;2023-12-04T00:35:41;10.23;;;7.60;;
11711;SDS011;5912;51.034;6.984;2023-12-04T00:38:06;8.93;;;6.70;;
11711;SDS011;5912;51.034;6.984;2023-12-04T00:40:32;9.73;;;6.67;;
11711;SDS011;5912;51.034;6.984;2023-12-04T00:42:57;8.87;;;6.63;;
11711;SDS011;5912;51.034;6.984;2023-12-04T00:45:23;10.60;;;7.20;;
11711;SDS011;5912;51.034;6.984;2023-12-04T00:47:48;9.20;;;6.73;;
11711;SDS011;5912;51.034;6.984;2023-12-04T00:50:13;9.60;;;7.20;;
11711;SDS011;5912;51.034;6.984;2023-12-04T00:52:39;9.77;;;6.47;;
11711;SDS011;5912;51.034;6.984;2023-12-04T00:55:04;10.07;;;6.93;;
11711;SDS011;5912;51.034;6.984;2023-12-04T00:57:30;10.97;;;6.67;;
11711;SDS011;5912;51.034;6.984;2023-12-04T00:59:55;9.03;;;6.53;;
11711;SDS011;5912;51.034;6.984;2023-12-04T01:02:21;9.80;;;6.80;;
11711;SDS011;5912;51.034;6.984;2023-12-04T01:04:46;11.67;;;7.27;;
11711;SDS011;5912;51.034;6.984;2023-12-04T01:07:11;10.40;;;6.80;;
11711;SDS011;5912;51.034;6.984;2023-12-04T01:09:37;8.90;;;7.23;;
11711;SDS011;5912;51.034;6.984;2023-12-04T01:12:02;9.43;;;6.83;;
11711;SDS011;5912;51.034;6.984;2023-12-04T01:14:28;10.27;;;7.33;;
11711;SDS011;5912;51.034;6.984;2023-12-04T01:16:54;10.47;;;7.10;;
11711;SDS011;5912;51.034;6.984;2023-12-04T01:19:19;9.57;;;6.27;;
11711;SDS011;5912;51.034;6.984;2023-12-04T01:21:44;9.43;;;6.40;;
11711;SDS011;5912;51.034;6.984;2023-12-04T01:24:10;9.17;;;6.50;;
11711;SDS011;5912;51.034;6.984;2023-12-04T01:26:36;8.50;;;6.17;;
11711;SDS011;5912;51.034;6.984;2023-12-04T01:29:01;9.40;;;6.10;;
11711;SDS011;5912;51.034;6.984;2023-12-04T01:31:27;8.97;;;6.40;;
11711;SDS011;5912;51.034;6.984;2023-12-04T01:33:52;9.07;;;6.50;;
11711;SDS011;5912;51.034;6.984;2023-12-04T01:36:17;8.97;;;6.70;;
11711;SDS011;5912;51.034;6.984;2023-12-04T01:38:42;8.33;;;6.23;;
11711;SDS011;5912;51.034;6.984;2023-12-04T01:41:08;8.17;;;6.20;;
11711;SDS011;5912;51.034;6.984;2023-12-04T01:43:33;8.10;;;6.10;;
11711;SDS011;5912;51.034;6.984;2023-12-04T01:46:00;7.53;;;5.77;;
11711;SDS011;5912;51.034;6.984;2023-12-04T01:48:26;9.03;;;6.37;;
11711;SDS011;5912;51.034;6.984;2023-12-04T01:50:52;9.00;;;6.27;;
11711;SDS011;5912;51.034;6.984;2023-12-04T01:53:18;8.63;;;5.93;;
11711;SDS011;5912;51.034;6.984;2023-12-04T01:55:43;9.37;;;6.90;;
11711;SDS011;5912;51.034;6.984;2023-12-04T01:58:09;8.27;;;6.00;;
11711;SDS011;5912;51.034;6.984;2023-12-04T02:00:35;9.97;;;6.30;;
11711;SDS011;5912;51.034;6.984;2023-12-04T02:03:00;9.33;;;6.50;;
11711;SDS011;5912;51.034;6.984;2023-12-04T02:05:26;7.63;;;6.07;;
11711;SDS011;5912;51.034;6.984;2023-12-04T02:07:53;9.07;;;6.33;;
11711;SDS011;5912;51.034;6.984;2023-12-04T02:10:19;8.83;;;6.20;;
11711;SDS011;5912;51.034;6.984;2023-12-04T02:12:44;7.93;;;5.77;;
11711;SDS011;5912;51.034;6.984;2023-12-04T02:15:09;8.17;;;6.50;;
11711;SDS011;5912;51.034;6.984;2023-12-04T02:17:35;9.20;;;6.13;;
11711;SDS011;5912;51.034;6.984;2023-12-04T02:20:01;8.43;;;6.00;;
11711;SDS011;5912;51.034;6.984;2023-12-04T02:22:28;8.40;;;6.13;;
11711;SDS011;5912;51.034;6.984;2023-12-04T02:24:54;8.50;;;5.93;;
11711;SDS011;5912;51.034;6.984;2023-12-04T02:27:25;8.83;;;6.07;;
11711;SDS011;5912;51.034;6.984;2023-12-04T02:29:53;8.10;;;6.10;;
11711;SDS011;5912;51.034;6.984;2023-12-04T02:32:22;8.63;;;6.33;;
11711;SDS011;5912;51.034;6.984;2023-12-04T02:34:49;7.87;;;5.90;;
11711;SDS011;5912;51.034;6.984;2023-12-04T02:37:18;9.30;;;6.40;;
11711;SDS011;5912;51.034;6.984;2023-12-04T02:39:44;10.10;;;6.30;;
11711;SDS011;5912;51.034;6.984;2023-12-04T02:42:11;8.40;;;5.73;;
11711;SDS011;5912;51.034;6.984;2023-12-04T02:44:38;9.20;;;6.17;;
11711;SDS011;5912;51.034;6.984;2023-12-04T02:47:03;10.07;;;6.30;;
11711;SDS011;5912;51.034;6.984;2023-12-04T02:49:29;11.30;;;6.33;;
11711;SDS011;5912;51.034;6.984;2023-12-04T02:51:54;8.97;;;6.27;;
11711;SDS011;5912;51.034;6.984;2023-12-04T02:54:19;8.77;;;5.90;;
11711;SDS011;5912;51.034;6.984;2023-12-04T02:56:45;8.87;;;6.50;;
11711;SDS011;5912;51.034;6.984;2023-12-04T02:59:10;9.40;;;6.30;;
11711;SDS011;5912;51.034;6.984;2023-12-04T03:01:35;11.13;;;6.10;;
11711;SDS011;5912;51.034;6.984;2023-12-04T03:04:01;7.90;;;5.77;;
11711;SDS011;5912;51.034;6.984;2023-12-04T03:06:26;7.43;;;5.57;;
11711;SDS011;5912;51.034;6.984;2023-12-04T03:08:51;7.10;;;5.33;;
11711;SDS011;5912;51.034;6.984;2023-12-04T03:11:17;9.27;;;6.37;;
11711;SDS011;5912;51.034;6.984;2023-12-04T03:13:42;8.10;;;5.70;;
11711;SDS011;5912;51.034;6.984;2023-12-04T03:16:14;8.73;;;6.13;;
11711;SDS011;5912;51.034;6.984;2023-12-04T03:18:43;8.37;;;5.63;;
11711;SDS011;5912;51.034;6.984;2023-12-04T03:21:09;7.87;;;5.97;;
11711;SDS011;5912;51.034;6.984;2023-12-04T03:23:34;7.63;;;5.57;;
11711;SDS011;5912;51.034;6.984;2023-12-04T03:25:59;6.50;;;5.20;;
11711;SDS011;5912;51.034;6.984;2023-12-04T03:28:25;8.80;;;5.80;;
11711;SDS011;5912;51.034;6.984;2023-12-04T03:30:50;8.43;;;5.87;;
11711;SDS011;5912;51.034;6.984;2023-12-04T03:33:15;7.23;;;5.50;;
11711;SDS011;5912;51.034;6.984;2023-12-04T03:35:41;6.80;;;5.20;;
11711;SDS011;5912;51.034;6.984;2023-12-04T03:38:06;7.63;;;5.80;;
11711;SDS011;5912;51.034;6.984;2023-12-04T03:40:31;7.47;;;5.80;;
11711;SDS011;5912;51.034;6.984;2023-12-04T03:42:57;7.13;;;5.53;;
11711;SDS011;5912;51.034;6.984;2023-12-04T03:45:22;7.23;;;5.37;;
11711;SDS011;5912;51.034;6.984;2023-12-04T03:47:47;7.73;;;5.57;;
11711;SDS011;5912;51.034;6.984;2023-12-04T03:50:13;7.30;;;5.80;;
11711;SDS011;5912;51.034;6.984;2023-12-04T03:52:38;7.30;;;5.87;;
11711;SDS011;5912;51.034;6.984;2023-12-04T03:55:03;7.67;;;5.47;;
11711;SDS011;5912;51.034;6.984;2023-12-04T03:57:29;7.43;;;5.10;;
11711;SDS011;5912;51.034;6.984;2023-12-04T03:59:54;7.87;;;5.33;;
11711;SDS011;5912;51.034;6.984;2023-12-04T04:02:20;8.20;;;5.07;;
11711;SDS011;5912;51.034;6.984;2023-12-04T04:04:45;8.93;;;5.77;;
11711;SDS011;5912;51.034;6.984;2023-12-04T04:07:15;7.50;;;5.37;;
11711;SDS011;5912;51.034;6.984;2023-12-04T04:09:41;7.10;;;5.30;;
11711;SDS011;5912;51.034;6.984;2023-12-04T04:12:06;7.10;;;5.30;;
11711;SDS011;5912;51.034;6.984;2023-12-04T04:14:31;6.47;;;4.67;;
11711;SDS011;5912;51.034;6.984;2023-12-04T04:16:57;6.33;;;5.17;;
11711;SDS011;5912;51.034;6.984;2023-12-04T04:19:22;7.50;;;4.97;;
11711;SDS011;5912;51.034;6.984;2023-12-04T04:21:47;6.47;;;4.90;;
11711;SDS011;5912;51.034;6.984;2023-12-04T04:24:13;7.93;;;5.70;;
11711;SDS011;5912;51.034;6.984;2023-12-04T04:26:38;8.07;;;5.53;;
11711;SDS011;5912;51.034;6.984;2023-12-04T04:29:03;7.83;;;5.40;;
11711;SDS011;5912;51.034;6.984;2023-12-04T04:31:28;7.27;;;5.43;;
11711;SDS011;5912;51.034;6.984;2023-12-04T04:33:54;6.60;;;5.03;;
11711;SDS011;5912;51.034;6.984;2023-12-04T04:36:19;8.13;;;5.47;;
11711;SDS011;5912;51.034;6.984;2023-12-04T04:38:44;7.43;;;5.27;;
11711;SDS011;5912;51.034;6.984;2023-12-04T04:41:13;7.73;;;5.47;;
11711;SDS011;5912;51.034;6.984;2023-12-04T04:43:40;7.87;;;5.80;;
11711;SDS011;5912;51.034;6.984;2023-12-04T04:46:05;8.10;;;5.63;;
11711;SDS011;5912;51.034;6.984;2023-12-04T04:48:30;7.10;;;5.40;;
11711;SDS011;5912;51.034;6.984;2023-12-04T04:50:56;8.10;;;5.93;;
11711;SDS011;5912;51.034;6.984;2023-12-04T04:53:21;7.23;;;5.87;;
11711;SDS011;5912;51.034;6.984;2023-12-04T04:55:46;7.57;;;5.70;;
11711;SDS011;5912;51.034;6.984;2023-12-04T04:58:12;7.63;;;5.83;;
11711;SDS011;5912;51.034;6.984;2023-12-04T05:00:37;7.77;;;5.90;;
11711;SDS011;5912;51.034;6.984;2023-12-04T05:03:02;7.90;;;5.97;;
11711;SDS011;5912;51.034;6.984;2023-12-04T05:05:28;8.93;;;5.67;;
11711;SDS011;5912;51.034;6.984;2023-12-04T05:08:05;7.70;;;5.77;;
11711;SDS011;5912;51.034;6.984;2023-12-04T05:10:30;8.83;;;6.10;;
11711;SDS011;5912;51.034;6.984;2023-12-04T05:12:56;8.73;;;6.53;;
11711;SDS011;5912;51.034;6.984;2023-12-04T05:15:21;8.50;;;6.23;;
11711;SDS011;5912;51.034;6.984;2023-12-04T05:17:46;8.90;;;6.50;;
11711;SDS011;5912;51.034;6.984;2023-12-04T05:20:12;8.53;;;6.20;;
11711;SDS011;5912;51.034;6.984;2023-12-04T05:22:38;8.93;;;6.33;;
11711;SDS011;5912;51.034;6.984;2023-12-04T05:25:03;9.53;;;6.67;;
11711;SDS011;5912;51.034;6.984;2023-12-04T05:27:29;8.93;;;6.53;;
11711;SDS011;5912;51.034;6.984;2023-12-04T05:29:54;8.60;;;6.67;;
11711;SDS011;5912;51.034;6.984;2023-12-04T05:32:19;8.27;;;6.37;;
11711;SDS011;5912;51.034;6.984;2023-12-04T05:34:45;9.27;;;6.47;;
11711;SDS011;5912;51.034;6.984;2023-12-04T05:37:10;9.00;;;6.03;;
11711;SDS011;5912;51.034;6.984;2023-12-04T05:39:35;9.83;;;6.80;;
11711;SDS011;5912;51.034;6.984;2023-12-04T05:42:01;11.33;;;7.47;;
11711;SDS011;5912;51.034;6.984;2023-12-04T05:44:26;8.47;;;6.27;;
11711;SDS011;5912;51.034;6.984;2023-12-04T05:46:51;8.73;;;6.67;;
11711;SDS011;5912;51.034;6.984;2023-12-04T05:49:17;8.83;;;6.87;;
11711;SDS011;5912;51.034;6.984;2023-12-04T05:51:42;12.17;;;6.80;;
11711;SDS011;5912;51.034;6.984;2023-12-04T05:54:07;7.80;;;6.40;;
11711;SDS011;5912;51.034;6.984;2023-12-04T05:56:34;10.77;;;6.87;;
11711;SDS011;5912;51.034;6.984;2023-12-04T05:58:59;10.67;;;7.20;;
11711;SDS011;5912;51.034;6.984;2023-12-04T06:01:24;9.00;;;6.70;;
11711;SDS011;5912;51.034;6.984;2023-12-04T06:03:50;8.53;;;6.40;;
11711;SDS011;5912;51.034;6.984;2023-12-04T06:06:15;9.17;;;6.87;;
11711;SDS011;5912;51.034;6.984;2023-12-04T06:08:40;10.37;;;7.27;;
11711;SDS011;5912;51.034;6.984;2023-12-04T06:11:05;8.90;;;6.53;;
11711;SDS011;5912;51.034;6.984;2023-12-04T06:13:31;8.57;;;6.53;;
11711;SDS011;5912;51.034;6.984;2023-12-04T06:15:56;9.07;;;6.63;;
11711;SDS011;5912;51.034;6.984;2023-12-04T06:18:22;9.77;;;7.43;;
11711;SDS011;5912;51.034;6.984;2023-12-04T06:20:47;9.60;;;7.13;;
11711;SDS011;5912;51.034;6.984;2023-12-04T06:23:12;10.90;;;7.20;;
11711;SDS011;5912;51.034;6.984;2023-12-04T06:25:38;9.90;;;7.23;;
11711;SDS011;5912;51.034;6.984;2023-12-04T06:28:04;10.37;;;7.00;;
11711;SDS011;5912;51.034;6.984;2023-12-04T06:30:30;11.53;;;7.70;;
11711;SDS011;5912;51.034;6.984;2023-12-04T06:32:55;10.57;;;7.70;;
11711;SDS011;5912;51.034;6.984;2023-12-04T06:35:21;11.30;;;7.30;;
11711;SDS011;5912;51.034;6.984;2023-12-04T06:37:47;9.87;;;6.90;;
11711;SDS011;5912;51.034;6.984;2023-12-04T06:40:13;10.33;;;7.57;;
11711;SDS011;5912;51.034;6.984;2023-12-04T06:42:39;10.43;;;7.43;;
11711;SDS011;5912;51.034;6.984;2023-12-04T06:45:05;9.03;;;7.03;;
11711;SDS011;5912;51.034;6.984;2023-12-04T06:47:32;11.10;;;7.83;;
11711;SDS011;5912;51.034;6.984;2023-12-04T06:49:59;10.57;;;7.27;;
11711;SDS011;5912;51.034;6.984;2023-12-04T06:52:25;9.30;;;7.07;;
11711;SDS011;5912;51.034;6.984;2023-12-04T06:54:50;8.40;;;6.60;;
11711;SDS011;5912;51.034;6.984;2023-12-04T06:57:15;10.13;;;6.90;;
11711;SDS011;5912;51.034;6.984;2023-12-04T06:59:43;8.80;;;6.50;;
11711;SDS011;5912;51.034;6.984;2023-12-04T07:02:09;9.73;;;6.63;;
11711;SDS011;5912;51.034;6.984;2023-12-04T07:04:34;7.70;;;6.17;;
11711;SDS011;5912;51.034;6.984;2023-12-04T07:06:59;8.60;;;6.10;;
11711;SDS011;5912;51.034;6.984;2023-12-04T07:09:30;8.20;;;6.43;;
11711;SDS011;5912;51.034;6.984;2023-12-04T07:11:56;11.37;;;6.53;;
11711;SDS011;5912;51.034;6.984;2023-12-04T07:14:21;9.43;;;6.80;;
11711;SDS011;5912;51.034;6.984;2023-12-04T07:16:47;7.93;;;5.60;;
11711;SDS011;5912;51.034;6.984;2023-12-04T07:19:12;8.30;;;6.27;;
11711;SDS011;5912;51.034;6.984;2023-12-04T07:21:39;8.40;;;5.90;;
11711;SDS011;5912;51.034;6.984;2023-12-04T07:24:06;8.00;;;5.87;;
11711;SDS011;5912;51.034;6.984;2023-12-04T07:26:32;7.67;;;6.03;;
11711;SDS011;5912;51.034;6.984;2023-12-04T07:29:01;7.53;;;5.40;;
11711;SDS011;5912;51.034;6.984;2023-12-04T07:31:27;9.47;;;6.60;;
11711;SDS011;5912;51.034;6.984;2023-12-04T07:33:53;7.67;;;5.80;;
11711;SDS011;5912;51.034;6.984;2023-12-04T07:36:19;7.70;;;5.70;;
11711;SDS011;5912;51.034;6.984;2023-12-04T07:38:44;6.87;;;5.30;;
11711;SDS011;5912;51.034;6.984;2023-12-04T07:41:10;7.97;;;5.23;;
11711;SDS011;5912;51.034;6.984;2023-12-04T07:43:35;6.63;;;5.10;;
11711;SDS011;5912;51.034;6.984;2023-12-04T07:46:01;7.33;;;5.63;;
11711;SDS011;5912;51.034;6.984;2023-12-04T07:48:26;6.90;;;5.20;;
11711;SDS011;5912;51.034;6.984;2023-12-04T07:50:51;7.80;;;5.47;;
11711;SDS011;5912;51.034;6.984;2023-12-04T07:53:16;6.83;;;5.03;;
11711;SDS011;5912;51.034;6.984;2023-12-04T07:55:42;6.17;;;4.67;;
11711;SDS011;5912;51.034;6.984;2023-12-04T07:58:08;6.43;;;4.93;;
11711;SDS011;5912;51.034;6.984;2023-12-04T08:00:34;6.53;;;4.80;;
11711;SDS011;5912;51.034;6.984;2023-12-04T08:02:59;6.90;;;4.87;;
11711;SDS011;5912;51.034;6.984;2023-12-04T08:05:25;6.73;;;5.03;;
11711;SDS011;5912;51.034;6.984;2023-12-04T08:07:52;6.77;;;4.33;;
11711;SDS011;5912;51.034;6.984;2023-12-04T08:10:17;5.70;;;4.53;;
11711;SDS011;5912;51.034;6.984;2023-12-04T08:12:44;6.17;;;4.60;;
11711;SDS011;5912;51.034;6.984;2023-12-04T08:15:11;5.53;;;4.80;;
11711;SDS011;5912;51.034;6.984;2023-12-04T08:17:36;7.77;;;5.50;;
11711;SDS011;5912;51.034;6.984;2023-12-04T08:20:01;6.13;;;4.17;;
11711;SDS011;5912;51.034;6.984;2023-12-04T08:22:27;5.90;;;4.63;;
11711;SDS011;5912;51.034;6.984;2023-12-04T08:24:52;6.30;;;5.07;;
11711;SDS011;5912;51.034;6.984;2023-12-04T08:27:18;6.33;;;4.80;;
11711;SDS011;5912;51.034;6.984;2023-12-04T08:29:43;5.93;;;4.73;;
11711;SDS011;5912;51.034;6.984;2023-12-04T08:32:08;6.80;;;4.80;;
11711;SDS011;5912;51.034;6.984;2023-12-04T08:34:34;7.73;;;5.17;;
11711;SDS011;5912;51.034;6.984;2023-12-04T08:36:59;7.30;;;4.70;;
11711;SDS011;5912;51.034;6.984;2023-12-04T08:39:24;7.07;;;5.00;;
11711;SDS011;5912;51.034;6.984;2023-12-04T08:41:50;7.00;;;5.03;;
11711;SDS011;5912;51.034;6.984;2023-12-04T08:44:15;7.27;;;5.30;;
11711;SDS011;5912;51.034;6.984;2023-12-04T08:46:41;7.07;;;4.93;;
11711;SDS011;5912;51.034;6.984;2023-12-04T08:49:07;6.00;;;4.50;;
11711;SDS011;5912;51.034;6.984;2023-12-04T08:51:32;5.73;;;4.50;;
11711;SDS011;5912;51.034;6.984;2023-12-04T08:53:57;6.33;;;4.70;;
11711;SDS011;5912;51.034;6.984;2023-12-04T08:56:23;6.30;;;4.57;;
11711;SDS011;5912;51.034;6.984;2023-12-04T08:58:48;6.13;;;4.67;;
11711;SDS011;5912;51.034;6.984;2023-12-04T09:01:15;6.73;;;4.47;;
11711;SDS011;5912;51.034;6.984;2023-12-04T09:03:40;6.20;;;4.60;;
11711;SDS011;5912;51.034;6.984;2023-12-04T09:06:06;6.67;;;4.47;;
11711;SDS011;5912;51.034;6.984;2023-12-04T09:08:31;6.67;;;4.47;;
11711;SDS011;5912;51.034;6.984;2023-12-04T09:10:57;6.07;;;4.43;;
11711;SDS011;5912;51.034;6.984;2023-12-04T09:13:23;6.30;;;4.47;;
11711;SDS011;5912;51.034;6.984;2023-12-04T09:15:48;7.47;;;4.50;;
11711;SDS011;5912;51.034;6.984;2023-12-04T09:18:14;6.17;;;4.33;;
11711;SDS011;5912;51.034;6.984;2023-12-04T09:20:40;5.77;;;3.80;;
11711;SDS011;5912;51.034;6.984;2023-12-04T09:23:06;6.17;;;4.50;;
11711;SDS011;5912;51.034;6.984;2023-12-04T09:25:34;9.93;;;4.77;;
11711;SDS011;5912;51.034;6.984;2023-12-04T09:27:59;6.70;;;4.60;;
11711;SDS011;5912;51.034;6.984;2023-12-04T09:30:25;6.47;;;4.63;;
11711;SDS011;5912;51.034;6.984;2023-12-04T09:32:51;6.37;;;4.53;;
11711;SDS011;5912;51.034;6.984;2023-12-04T09:35:16;5.47;;;4.43;;
11711;SDS011;5912;51.034;6.984;2023-12-04T09:41:01;5.80;;;4.43;;
11711;SDS011;5912;51.034;6.984;2023-12-04T09:43:33;6.77;;;4.43;;
11711;SDS011;5912;51.034;6.984;2023-12-04T09:45:59;5.80;;;4.50;;
11711;SDS011;5912;51.034;6.984;2023-12-04T09:48:26;6.17;;;4.47;;
11711;SDS011;5912;51.034;6.984;2023-12-04T09:50:52;6.47;;;4.73;;
11711;SDS011;5912;51.034;6.984;2023-12-04T09:53:18;8.53;;;4.63;;
11711;SDS011;5912;51.034;6.984;2023-12-04T09:55:47;5.90;;;4.40;;
11711;SDS011;5912;51.034;6.984;2023-12-04T09:58:14;6.37;;;4.57;;
11711;SDS011;5912;51.034;6.984;2023-12-04T10:00:41;6.03;;;4.33;;
11711;SDS011;5912;51.034;6.984;2023-12-04T10:03:08;5.83;;;4.27;;
11711;SDS011;5912;51.034;6.984;2023-12-04T10:05:33;5.53;;;4.50;;
11711;SDS011;5912;51.034;6.984;2023-12-04T10:07:58;5.70;;;4.30;;
11711;SDS011;5912;51.034;6.984;2023-12-04T10:10:24;5.77;;;4.50;;
11711;SDS011;5912;51.034;6.984;2023-12-04T10:12:49;5.97;;;4.43;;
11711;SDS011;5912;51.034;6.984;2023-12-04T10:15:15;5.80;;;4.57;;
11711;SDS011;5912;51.034;6.984;2023-12-04T10:17:41;5.17;;;3.87;;
11711;SDS011;5912;51.034;6.984;2023-12-04T10:22:38;6.77;;;5.07;;
11711;SDS011;5912;51.034;6.984;2023-12-04T10:25:17;5.67;;;4.13;;
11711;SDS011;5912;51.034;6.984;2023-12-04T10:27:43;5.27;;;4.23;;
11711;SDS011;5912;51.034;6.984;2023-12-04T10:30:09;5.97;;;4.60;;
11711;SDS011;5912;51.034;6.984;2023-12-04T10:32:39;6.40;;;4.80;;
11711;SDS011;5912;51.034;6.984;2023-12-04T10:35:05;6.50;;;4.53;;
11711;SDS011;5912;51.034;6.984;2023-12-04T10:37:36;6.87;;;4.47;;
11711;SDS011;5912;51.034;6.984;2023-12-04T10:40:02;6.77;;;4.80;;
11711;SDS011;5912;51.034;6.984;2023-12-04T10:42:29;6.87;;;4.60;;
11711;SDS011;5912;51.034;6.984;2023-12-04T10:44:58;7.20;;;4.97;;
11711;SDS011;5912;51.034;6.984;2023-12-04T10:47:24;5.77;;;4.60;;
11711;SDS011;5912;51.034;6.984;2023-12-04T10:49:50;6.23;;;4.90;;
11711;SDS011;5912;51.034;6.984;2023-12-04T10:52:16;6.30;;;4.70;;
11711;SDS011;5912;51.034;6.984;2023-12-04T10:54:44;7.13;;;4.87;;
11711;SDS011;5912;51.034;6.984;2023-12-04T10:57:13;6.63;;;4.93;;
11711;SDS011;5912;51.034;6.984;2023-12-04T10:59:45;7.20;;;5.07;;
11711;SDS011;5912;51.034;6.984;2023-12-04T11:02:13;6.33;;;4.90;;
11711;SDS011;5912;51.034;6.984;2023-12-04T11:04:45;6.10;;;4.87;;
11711;SDS011;5912;51.034;6.984;2023-12-04T11:07:15;7.53;;;5.43;;
11711;SDS011;5912;51.034;6.984;2023-12-04T11:09:41;6.40;;;4.90;;
11711;SDS011;5912;51.034;6.984;2023-12-04T11:12:08;6.97;;;5.00;;
11711;SDS011;5912;51.034;6.984;2023-12-04T11:14:44;6.30;;;4.97;;
11711;SDS011;5912;51.034;6.984;2023-12-04T11:17:16;6.80;;;5.50;;
11711;SDS011;5912;51.034;6.984;2023-12-04T11:22:41;8.83;;;6.00;;
11711;SDS011;5912;51.034;6.984;2023-12-04T11:25:10;6.90;;;5.10;;
11711;SDS011;5912;51.034;6.984;2023-12-04T11:27:36;6.60;;;5.57;;
11711;SDS011;5912;51.034;6.984;2023-12-04T11:30:02;6.60;;;5.33;;
11711;SDS011;5912;51.034;6.984;2023-12-04T11:32:28;7.20;;;5.47;;
11711;SDS011;5912;51.034;6.984;2023-12-04T11:34:55;6.33;;;5.33;;
11711;SDS011;5912;51.034;6.984;2023-12-04T11:37:21;6.90;;;5.67;;
11711;SDS011;5912;51.034;6.984;2023-12-04T11:39:49;9.13;;;6.10;;
11711;SDS011;5912;51.034;6.984;2023-12-04T11:42:19;10.50;;;6.53;;
11711;SDS011;5912;51.034;6.984;2023-12-04T11:44:47;8.83;;;6.30;;
11711;SDS011;5912;51.034;6.984;2023-12-04T11:47:13;7.53;;;6.20;;
11711;SDS011;5912;51.034;6.984;2023-12-04T11:49:57;9.47;;;6.37;;
11711;SDS011;5912;51.034;6.984;2023-12-04T11:52:32;8.70;;;6.03;;
11711;SDS011;5912;51.034;6.984;2023-12-04T11:55:00;7.37;;;6.23;;
11711;SDS011;5912;51.034;6.984;2023-12-04T11:57:33;9.33;;;6.17;;
11711;SDS011;5912;51.034;6.984;2023-12-04T12:00:09;9.37;;;6.40;;
11711;SDS011;5912;51.034;6.984;2023-12-04T12:02:47;8.13;;;6.40;;
11711;SDS011;5912;51.034;6.984;2023-12-04T12:05:12;10.00;;;6.67;;
11711;SDS011;5912;51.034;6.984;2023-12-04T12:07:38;8.87;;;6.57;;
11711;SDS011;5912;51.034;6.984;2023-12-04T12:10:03;9.67;;;6.33;;
11711;SDS011;5912;51.034;6.984;2023-12-04T12:12:29;9.63;;;6.43;;
11711;SDS011;5912;51.034;6.984;2023-12-04T12:14:56;9.13;;;6.63;;
11711;SDS011;5912;51.034;6.984;2023-12-04T12:17:21;9.37;;;6.67;;
11711;SDS011;5912;51.034;6.984;2023-12-04T12:19:46;9.53;;;7.20;;
11711;SDS011;5912;51.034;6.984;2023-12-04T12:22:12;8.80;;;6.83;;
11711;SDS011;5912;51.034;6.984;2023-12-04T12:24:37;10.00;;;7.07;;
11711;SDS011;5912;51.034;6.984;2023-12-04T12:27:04;9.23;;;6.70;;
11711;SDS011;5912;51.034;6.984;2023-12-04T12:29:30;10.07;;;6.70;;
11711;SDS011;5912;51.034;6.984;2023-12-04T12:31:55;8.27;;;6.33;;
11711;SDS011;5912;51.034;6.984;2023-12-04T12:34:20;9.13;;;6.80;;
11711;SDS011;5912;51.034;6.984;2023-12-04T12:36:46;9.47;;;6.80;;
11711;SDS011;5912;51.034;6.984;2023-12-04T12:39:12;8.73;;;6.77;;
11711;SDS011;5912;51.034;6.984;2023-12-04T12:41:38;9.83;;;6.43;;
11711;SDS011;5912;51.034;6.984;2023-12-04T12:44:03;7.77;;;6.17;;
11711;SDS011;5912;51.034;6.984;2023-12-04T12:46:29;8.60;;;6.07;;
11711;SDS011;5912;51.034;6.984;2023-12-04T12:48:54;9.77;;;6.90;;
11711;SDS011;5912;51.034;6.984;2023-12-04T12:51:19;8.90;;;6.70;;
11711;SDS011;5912;51.034;6.984;2023-12-04T12:53:45;8.43;;;6.13;;
11711;SDS011;5912;51.034;6.984;2023-12-04T12:56:10;10.57;;;7.23;;
11711;SDS011;5912;51.034;6.984;2023-12-04T12:58:36;8.33;;;6.57;;
11711;SDS011;5912;51.034;6.984;2023-12-04T13:01:01;9.00;;;5.90;;
11711;SDS011;5912;51.034;6.984;2023-12-04T13:03:27;7.83;;;6.03;;
11711;SDS011;5912;51.034;6.984;2023-12-04T13:05:55;8.77;;;6.63;;
11711;SDS011;5912;51.034;6.984;2023-12-04T13:08:20;8.93;;;6.20;;
11711;SDS011;5912;51.034;6.984;2023-12-04T13:10:45;10.17;;;6.10;;
11711;SDS011;5912;51.034;6.984;2023-12-04T13:13:14;10.17;;;7.00;;
11711;SDS011;5912;51.034;6.984;2023-12-04T13:15:42;8.40;;;6.20;;
11711;SDS011;5912;51.034;6.984;2023-12-04T13:18:08;7.90;;;6.17;;
11711;SDS011;5912;51.034;6.984;2023-12-04T13:20:34;8.60;;;6.00;;
11711;SDS011;5912;51.034;6.984;2023-12-04T13:22:59;10.20;;;6.43;;
11711;SDS011;5912;51.034;6.984;2023-12-04T13:25:25;8.83;;;6.40;;
11711;SDS011;5912;51.034;6.984;2023-12-04T13:27:50;8.43;;;6.37;;
11711;SDS011;5912;51.034;6.984;2023-12-04T13:30:15;9.90;;;6.43;;
11711;SDS011;5912;51.034;6.984;2023-12-04T13:32:41;7.57;;;5.47;;
11711;SDS011;5912;51.034;6.984;2023-12-04T13:35:06;9.07;;;6.07;;
11711;SDS011;5912;51.034;6.984;2023-12-04T13:37:33;7.60;;;5.67;;
11711;SDS011;5912;51.034;6.984;2023-12-04T13:39:59;8.73;;;5.90;;
11711;SDS011;5912;51.034;6.984;2023-12-04T13:42:29;9.07;;;5.67;;
11711;SDS011;5912;51.034;6.984;2023-12-04T13:45:13;8.80;;;6.10;;
11711;SDS011;5912;51.034;6.984;2023-12-04T13:47:38;8.40;;;6.00;;
11711;SDS011;5912;51.034;6.984;2023-12-04T13:50:07;7.47;;;5.27;;
11711;SDS011;5912;51.034;6.984;2023-12-04T13:52:34;8.23;;;5.67;;
11711;SDS011;5912;51.034;6.984;2023-12-04T13:55:00;6.37;;;4.90;;
11711;SDS011;5912;51.034;6.984;2023-12-04T13:57:25;6.93;;;5.13;;
11711;SDS011;5912;51.034;6.984;2023-12-04T14:02:57;6.17;;;5.17;;
11711;SDS011;5912;51.034;6.984;2023-12-04T14:05:29;6.87;;;5.07;;
11711;SDS011;5912;51.034;6.984;2023-12-04T14:07:58;5.20;;;4.53;;
11711;SDS011;5912;51.034;6.984;2023-12-04T14:10:24;6.27;;;4.93;;
11711;SDS011;5912;51.034;6.984;2023-12-04T14:12:53;6.37;;;4.77;;
11711;SDS011;5912;51.034;6.984;2023-12-04T14:15:19;6.00;;;4.53;;
11711;SDS011;5912;51.034;6.984;2023-12-04T14:17:45;6.37;;;4.80;;
11711;SDS011;5912;51.034;6.984;2023-12-04T14:20:11;5.80;;;4.77;;
11711;SDS011;5912;51.034;6.984;2023-12-04T14:22:37;5.80;;;4.73;;
11711;SDS011;5912;51.034;6.984;2023-12-04T14:25:06;6.10;;;4.57;;
11711;SDS011;5912;51.034;6.984;2023-12-04T14:27:32;5.13;;;4.40;;
11711;SDS011;5912;51.034;6.984;2023-12-04T14:29:57;8.13;;;4.87;;
11711;SDS011;5912;51.034;6.984;2023-12-04T14:32:22;5.93;;;4.63;;
11711;SDS011;5912;51.034;6.984;2023-12-04T14:34:47;5.20;;;4.23;;
11711;SDS011;5912;51.034;6.984;2023-12-04T14:37:13;5.60;;;4.50;;
11711;SDS011;5912;51.034;6.984;2023-12-04T14:39:38;5.57;;;4.27;;
11711;SDS011;5912;51.034;6.984;2023-12-04T14:42:03;5.90;;;4.23;;
11711;SDS011;5912;51.034;6.984;2023-12-04T14:44:29;5.43;;;4.47;;
11711;SDS011;5912;51.034;6.984;2023-12-04T14:46:54;5.53;;;3.93;;
11711;SDS011;5912;51.034;6.984;2023-12-04T14:49:19;5.47;;;3.80;;
11711;SDS011;5912;51.034;6.984;2023-12-04T14:51:45;4.27;;;3.50;;
11711;SDS011;5912;51.034;6.984;2023-12-04T14:54:13;5.13;;;4.00;;
11711;SDS011;5912;51.034;6.984;2023-12-04T14:56:46;4.93;;;4.07;;
11711;SDS011;5912;51.034;6.984;2023-12-04T14:59:30;4.37;;;3.53;;
11711;SDS011;5912;51.034;6.984;2023-12-04T15:02:33;4.57;;;3.87;;
11711;SDS011;5912;51.034;6.984;2023-12-04T15:05:28;4.10;;;3.70;;
11711;SDS011;5912;51.034;6.984;2023-12-04T15:10:58;4.87;;;4.10;;